createdAt,value
2018-08-31T00:00:01.047Z,3.0
2018-08-31T00:15:01.103Z,4.0
2018-08-31T00:20:01.109Z,3.1
2018-08-31T00:30:01.154Z,4.1
2018-08-31T00:45:00.530Z,3.0
2018-08-31T01:05:00.785Z,4.6
2018-08-31T01:10:00.776Z,5.1
2018-08-31T01:15:00.683Z,6.1
2018-08-31T01:20:00.722Z,6.9
2018-08-31T01:25:00.717Z,7.3
2018-08-31T01:30:00.845Z,8.4
2018-08-31T01:35:00.741Z,8.6
2018-08-31T01:40:00.791Z,8.8
2018-08-31T01:45:00.745Z,8.0
2018-08-31T01:50:00.781Z,7.0
2018-08-31T01:55:00.724Z,6.2
2018-08-31T02:00:00.789Z,5.6
2018-08-31T02:05:00.745Z,4.6
2018-08-31T02:10:00.725Z,4.4
2018-08-31T02:15:00.750Z,4.3
2018-08-31T02:20:00.793Z,4.0
2018-08-31T02:25:00.773Z,4.1
2018-08-31T02:30:00.895Z,3.9
2018-08-31T02:40:00.863Z,4.9
2018-08-31T02:45:00.696Z,4.6
2018-08-31T03:00:00.795Z,4.4
2018-08-31T03:05:00.738Z,3.3
2018-08-31T03:10:00.865Z,3.5
2018-08-31T03:15:00.737Z,4.3
2018-08-31T03:20:00.872Z,4.6
2018-08-31T03:25:00.741Z,5.2
2018-08-31T03:30:00.806Z,5.7
2018-08-31T03:40:00.747Z,4.7
2018-08-31T03:45:00.713Z,4.4
2018-08-31T03:55:00.758Z,4.1
2018-08-31T04:00:00.815Z,4.0
2018-08-31T04:10:00.825Z,4.1
2018-08-31T04:15:00.969Z,3.6
2018-08-31T04:20:00.889Z,3.7
2018-08-31T04:25:00.764Z,3.6
2018-08-31T04:30:00.821Z,3.9
2018-08-31T04:35:00.755Z,3.8
2018-08-31T04:40:00.828Z,3.6
2018-08-31T04:45:00.830Z,3.3
2018-08-31T04:50:00.899Z,3.7
2018-08-31T04:55:00.778Z,3.3
2018-08-31T05:00:00.824Z,3.4
2018-08-31T05:05:00.763Z,3.5
2018-08-31T05:10:00.824Z,3.9
2018-08-31T05:15:00.760Z,3.7
2018-08-31T05:20:00.828Z,4.2
2018-08-31T05:25:00.726Z,4.4
2018-08-31T05:30:00.892Z,4.6
2018-08-31T05:35:00.765Z,4.4
2018-08-31T05:40:00.823Z,4.8
2018-08-31T05:45:00.766Z,4.5
2018-08-31T05:55:00.766Z,4.6
2018-08-31T06:00:00.899Z,4.8
2018-08-31T06:05:00.789Z,5.0
2018-08-31T06:15:00.868Z,5.0
2018-08-31T06:20:00.797Z,4.9
2018-08-31T06:25:00.808Z,4.4
2018-08-31T06:30:00.870Z,4.0
2018-08-31T06:35:00.833Z,4.2
2018-08-31T06:40:00.961Z,4.4
2018-08-31T06:45:00.847Z,4.5
2018-08-31T06:50:00.959Z,5.8
2018-08-31T06:55:00.972Z,5.6
2018-08-31T07:00:00.887Z,5.7
2018-08-31T07:05:00.826Z,5.8
2018-08-31T07:10:00.816Z,5.5
2018-08-31T07:15:00.857Z,5.4
2018-08-31T07:20:00.895Z,5.8
2018-08-31T07:25:00.983Z,5.7
2018-08-31T07:30:00.896Z,5.9
2018-08-31T07:35:00.839Z,6.9
2018-08-31T07:40:00.891Z,6.7
2018-08-31T07:45:00.835Z,7.0
2018-08-31T07:50:00.904Z,7.6
2018-08-31T07:55:00.884Z,8.2
2018-08-31T08:00:00.972Z,8.0
2018-08-31T08:05:00.842Z,8.9
2018-08-31T08:10:00.910Z,9.0
2018-08-31T08:15:00.843Z,9.9
2018-08-31T08:20:00.906Z,10.1
2018-08-31T08:30:00.876Z,9.6
2018-08-31T08:35:00.808Z,10.4
2018-08-31T08:40:00.958Z,9.6
2018-08-31T08:45:00.878Z,9.6
2018-08-31T08:50:00.804Z,9.9
2018-08-31T08:55:00.811Z,10.4
2018-08-31T09:00:00.876Z,9.8
2018-08-31T09:05:00.812Z,9.7
2018-08-31T09:10:00.813Z,9.8
2018-08-31T09:15:00.799Z,10.2
2018-08-31T09:20:00.830Z,10.5
2018-08-31T09:25:00.824Z,11.0
2018-08-31T09:30:00.884Z,11.5
2018-08-31T09:35:00.823Z,11.6
2018-08-31T09:40:00.824Z,11.7
2018-08-31T09:45:00.828Z,11.2
2018-08-31T09:50:00.880Z,10.8
2018-08-31T10:00:00.896Z,10.6
2018-08-31T10:05:00.832Z,9.9
2018-08-31T10:10:00.840Z,10.4
2018-08-31T10:15:00.813Z,10.2
2018-08-31T10:20:00.831Z,10.4
2018-08-31T10:25:00.840Z,10.2
2018-08-31T10:30:00.900Z,10.4
2018-08-31T10:35:00.814Z,9.8
2018-08-31T10:40:00.841Z,9.9
2018-08-31T10:45:00.808Z,10.0
2018-08-31T10:50:00.845Z,10.3
2018-08-31T10:55:00.845Z,10.8
2018-08-31T11:00:00.840Z,10.6
2018-08-31T11:05:00.850Z,10.5
2018-08-31T11:10:00.850Z,9.6
2018-08-31T11:15:00.820Z,9.3
2018-08-31T11:20:00.853Z,9.4
2018-08-31T11:30:00.885Z,9.4
2018-08-31T11:35:00.860Z,9.6
2018-08-31T11:40:00.926Z,9.8
2018-08-31T11:45:00.864Z,9.4
2018-08-31T11:50:00.865Z,9.2
2018-08-31T11:55:00.865Z,9.4
2018-08-31T12:00:00.933Z,9.4
2018-08-31T12:05:00.918Z,9.1
2018-08-31T12:10:00.910Z,9.0
2018-08-31T12:15:00.890Z,9.5
2018-08-31T12:20:00.895Z,9.0
2018-08-31T12:25:00.943Z,9.1
2018-08-31T12:30:00.907Z,9.4
2018-08-31T12:35:00.916Z,9.0
2018-08-31T12:40:00.905Z,8.5
2018-08-31T12:45:00.878Z,8.5
2018-08-31T12:50:00.879Z,8.3
2018-08-31T12:55:00.848Z,8.1
2018-08-31T13:00:00.894Z,8.2
2018-08-31T13:10:00.882Z,8.5
2018-08-31T13:15:00.910Z,8.2
2018-08-31T13:20:01.122Z,8.0
2018-08-31T13:25:00.923Z,8.2
2018-08-31T13:30:00.914Z,7.9
2018-08-31T13:35:00.912Z,7.6
2018-08-31T13:40:01.062Z,7.4
2018-08-31T13:45:00.926Z,7.3
2018-08-31T13:50:00.985Z,6.5
2018-08-31T13:55:00.898Z,6.7
2018-08-31T14:00:00.997Z,6.5
2018-08-31T14:05:00.935Z,6.7
2018-08-31T14:10:00.996Z,7.0
2018-08-31T14:15:00.932Z,7.7
2018-08-31T14:20:01.003Z,7.6
2018-08-31T14:25:00.938Z,7.5
2018-08-31T14:30:01.062Z,7.7
2018-08-31T14:35:00.951Z,7.3
2018-08-31T14:40:01.007Z,6.7
2018-08-31T14:45:00.957Z,6.7
2018-08-31T14:50:01.158Z,7.1
2018-08-31T14:55:00.905Z,7.0
2018-08-31T15:00:00.980Z,7.0
2018-08-31T15:05:00.915Z,7.3
2018-08-31T15:15:00.984Z,6.5
2018-08-31T15:20:00.980Z,6.2
2018-08-31T15:25:00.932Z,6.4
2018-08-31T15:30:00.987Z,6.6
2018-08-31T15:35:00.895Z,6.8
2018-08-31T15:40:01.078Z,7.2
2018-08-31T15:45:00.929Z,7.3
2018-08-31T15:50:00.929Z,7.0
2018-08-31T15:55:00.922Z,6.1
2018-08-31T16:00:00.933Z,6.0
2018-08-31T16:10:00.933Z,5.9
2018-08-31T16:15:00.934Z,6.6
2018-08-31T16:20:00.961Z,7.3
2018-08-31T16:30:01.141Z,7.3
2018-08-31T16:35:00.939Z,7.4
2018-08-31T16:40:01.064Z,6.9
2018-08-31T16:45:00.945Z,6.4
2018-08-31T16:50:00.930Z,6.1
2018-08-31T16:55:00.907Z,5.8
2018-08-31T17:00:01.059Z,5.4
2018-08-31T17:05:00.960Z,4.9
2018-08-31T17:15:01.006Z,4.7
2018-08-31T17:20:01.074Z,4.5
2018-08-31T17:25:00.945Z,4.6
2018-08-31T17:30:01.077Z,4.6
2018-08-31T17:40:00.948Z,4.4
2018-08-31T17:45:00.952Z,4.6
2018-08-31T17:50:00.974Z,4.4
2018-08-31T17:55:00.986Z,4.5
2018-08-31T18:00:01.056Z,4.5
2018-08-31T18:05:00.955Z,4.7
2018-08-31T18:10:00.953Z,5.2
2018-08-31T18:15:00.958Z,5.4
2018-08-31T18:20:00.952Z,5.6
2018-08-31T18:25:01.011Z,5.9
2018-08-31T18:30:00.999Z,6.2
2018-08-31T18:35:00.985Z,5.8
2018-08-31T18:40:01.104Z,6.0
2018-08-31T18:45:00.990Z,5.9
2018-08-31T18:55:01.006Z,6.4
2018-08-31T19:00:00.997Z,6.2
2018-08-31T19:10:01.038Z,6.4
2018-08-31T19:15:00.975Z,6.2
2018-08-31T19:20:01.154Z,5.8
2018-08-31T19:25:01.015Z,5.9
2018-08-31T19:30:01.136Z,5.6
2018-08-31T19:35:00.948Z,5.9
2018-08-31T19:40:00.981Z,6.3
2018-08-31T19:45:00.952Z,6.6
2018-08-31T19:50:01.047Z,6.9
2018-08-31T19:55:01.020Z,7.9
2018-08-31T20:00:01.013Z,8.1
2018-08-31T20:05:00.993Z,8.6
2018-08-31T20:10:01.120Z,8.8
2018-08-31T20:15:01.037Z,9.4
2018-08-31T20:20:01.098Z,9.6
2018-08-31T20:30:01.063Z,9.9
2018-08-31T20:35:01.026Z,9.8
2018-08-31T20:40:01.089Z,9.7
2018-08-31T20:45:01.028Z,9.2
2018-08-31T20:50:01.091Z,9.4
2018-08-31T20:55:01.002Z,9.3
2018-08-31T21:00:01.050Z,9.2
2018-08-31T21:10:01.131Z,9.4
2018-08-31T21:15:01.003Z,9.3
2018-08-31T21:20:01.137Z,8.8
2018-08-31T21:25:00.978Z,8.4
2018-08-31T21:30:01.071Z,8.2
2018-08-31T21:35:01.042Z,7.7
2018-08-31T21:40:01.120Z,7.5
2018-08-31T21:45:01.019Z,7.3
2018-08-31T21:50:01.142Z,7.5
2018-08-31T21:55:01.021Z,7.8
2018-08-31T22:00:01.097Z,8.0
2018-08-31T22:05:01.013Z,7.8
2018-08-31T22:10:01.117Z,8.0
2018-08-31T22:15:01.035Z,7.8
2018-08-31T22:20:01.018Z,7.1
2018-08-31T22:25:01.070Z,7.2
2018-08-31T22:30:01.091Z,7.5
2018-08-31T22:35:01.050Z,7.6
2018-08-31T22:40:01.091Z,7.8
2018-08-31T22:45:01.024Z,9.0
2018-08-31T22:50:01.154Z,9.6
2018-08-31T22:55:01.047Z,10.0
2018-08-31T23:00:01.099Z,10.4
2018-08-31T23:05:02.059Z,11.0
2018-08-31T23:10:01.090Z,10.5
2018-08-31T23:15:01.037Z,10.2
2018-08-31T23:20:01.043Z,9.9
2018-08-31T23:25:01.037Z,9.7
2018-08-31T23:30:01.146Z,9.2
2018-08-31T23:35:01.070Z,9.3
2018-08-31T23:40:01.136Z,9.8
2018-08-31T23:45:01.076Z,10.0
2018-08-31T23:50:01.199Z,9.6
2018-08-31T23:55:01.077Z,9.4
